WetterOnline ( http://www.wetteronline.de )

Wetter aktuell Petersdorf

Aktuelles Wetter: Augsburg/Mühlhausen (477m)

6-stündlich | Neueste Meldungen
Ortszeit Temperatur Wetter
Mo, 25.03. 1:00 4.5° C bewölkt
So, 24.03. 19:00 11.4° C bewölkt
So, 24.03. 13:00 16.3° C wolkenlos
So, 24.03. 7:00 -1.4° C Nebel
So, 24.03. 1:00 0.9° C wolkenlos
Sa, 23.03. 19:00 8.6° C wolkenlos
Sa, 23.03. 13:00 16.6° C wolkenlos
Sa, 23.03. 7:00 1.0° C leicht bewölkt
Ortszeit Temperatur Wetter
Mo, 25.03. 1:00 4.5° C bewölkt
Mo, 25.03. 0:50 5° C -
Mo, 25.03. 0:40 4.9° C bewölkt
Mo, 25.03. 0:30 3.9° C wolkig
Mo, 25.03. 0:20 3.9° C wolkig
Mo, 25.03. 0:10 3.1° C wolkig
Mo, 25.03. 0:00 2.7° C fast wolkenlos
So, 24.03. 23:30 2.8° C leicht bewölkt
So, 24.03. 23:00 3.6° C wolkenlos
So, 24.03. 22:30 4.8° C wolkenlos
So, 24.03. 22:00 7.2° C wolkenlos
Ortszeit Relative Feuchte Sichtweite
Mo, 25.03. 1:00 91% 3.1 km
So, 24.03. 19:00 66% 5.0 km
So, 24.03. 13:00 46% 8 km
So, 24.03. 7:00 96% 0.2 km
So, 24.03. 1:00 92% 4.0 km
Sa, 23.03. 19:00 74% 12 km
Sa, 23.03. 13:00 42% 9 km
Sa, 23.03. 7:00 86% 7 km
Ortszeit Relative Feuchte Sichtweite
Mo, 25.03. 1:00 91% 3.1 km
Mo, 25.03. 0:50 87% 5.0 km
Mo, 25.03. 0:40 91% -
Mo, 25.03. 0:30 94% 2.4 km
Mo, 25.03. 0:20 94% -
Mo, 25.03. 0:10 92% -
Mo, 25.03. 0:00 94% 2.0 km
So, 24.03. 23:30 91% 2.5 km
So, 24.03. 23:00 89% 2.5 km
So, 24.03. 22:30 86% 2.9 km
So, 24.03. 22:00 82% 3.9 km
Ortszeit Niederschlagsmenge Niederschlagsart
Mo, 25.03. 1:00 0.0 l/m2 in 6 Std. -
So, 24.03. 19:00 0.0 l/m2 in 12 Std. -
So, 24.03. 13:00 0.0 l/m2 in 6 Std. -
So, 24.03. 7:00 0.0 l/m2 in 12 Std. -
So, 24.03. 1:00 0.0 l/m2 in 6 Std. -
Sa, 23.03. 19:00 0.0 l/m2 in 12 Std. -
Sa, 23.03. 13:00 0.0 l/m2 in 6 Std. -
Sa, 23.03. 7:00 0.0 l/m2 in 12 Std. -
Ortszeit Niederschlagsmenge Niederschlagsart
Mo, 25.03. 1:00 0.0 l/m2 in 1 Std. -
Mo, 25.03. 0:50 keine Meldung -
Mo, 25.03. 0:40 keine Meldung -
Mo, 25.03. 0:30 0.0 l/m2 in 1 Std. -
Mo, 25.03. 0:20 keine Meldung -
Mo, 25.03. 0:10 keine Meldung -
Mo, 25.03. 0:00 0.0 l/m2 in 1 Std. -
So, 24.03. 23:30 0.0 l/m2 in 1 Std. -
So, 24.03. 23:00 0.0 l/m2 in 1 Std. -
So, 24.03. 22:30 0.0 l/m2 in 1 Std. -
So, 24.03. 22:00 0.0 l/m2 in 1 Std. -
Ortszeit Stärke Spitze Richtung
km/h Bft. km/h Grad Sektor
Mo, 25.03. 1:00 4 1 29 160° S
So, 24.03. 19:00 22 4 36 360° N
So, 24.03. 13:00 7 2 14 330° NW
So, 24.03. 7:00 4 1 7 160° S
So, 24.03. 1:00 4 1 11 160° S
Sa, 23.03. 19:00 7 2 22 90° O
Sa, 23.03. 13:00 7 2 14 200° S
Sa, 23.03. 7:00 7 2 13 170° S
Ortszeit Stärke Spitze Richtung
km/h Bft. km/h Grad Sektor
Mo, 25.03. 1:00 4 1 4 160° S
Mo, 25.03. 0:50 4 1 - 150° SO
Mo, 25.03. 0:40 2 1 - 150° SO
Mo, 25.03. 0:30 4 1 4 140° SO
Mo, 25.03. 0:20 4 1 - 140° SO
Mo, 25.03. 0:10 4 1 - 100° O
Mo, 25.03. 0:00 4 1 11 140° SO
So, 24.03. 23:30 4 1 11 140° SO
So, 24.03. 23:00 6 1 7 120° SO
So, 24.03. 22:30 7 2 7 240° SW
So, 24.03. 22:00 4 1 11 290° W
Ortszeit Untergrenze Bedeckung Gattung
total tief tief mittel hoch
Mo, 25.03. 1:00 1500 m 7/8 7/8 - - -
So, 24.03. 19:00 1800 m 7/8 7/8 - - -
So, 24.03. 13:00 - 0/8 0/8 - - -
So, 24.03. 7:00 - 0/8 0/8 - - -
So, 24.03. 1:00 - 0/8 0/8 - - -
Sa, 23.03. 19:00 - 0/8 0/8 - - -
Sa, 23.03. 13:00 - 0/8 0/8 - - -
Sa, 23.03. 7:00 10500 m 4/8 0/8 - - -
Ortszeit Bedeckungsgrad in Achtel und Wolkenuntergrenze
Mo, 25.03. 1:00 7(1500m)
Mo, 25.03. 0:50 -
Mo, 25.03. 0:40 1(1170m) 7(1500m)
Mo, 25.03. 0:30 5(1170m) 6(1500m) 7(1500m)
Mo, 25.03. 0:20 5(1170m) 6(1500m)
Mo, 25.03. 0:10 5(1140m)
Mo, 25.03. 0:00 2(1140m)
So, 24.03. 23:30 4(7800m)
So, 24.03. 23:00 1(7500m)
So, 24.03. 22:30 keine Wolken
So, 24.03. 22:00 keine Wolken
Ortszeit Luftdruck NN (hPa) Tendenz (hPa in 3 Std.)
Mo, 25.03. 1:00 1022 - 1,6
So, 24.03. 19:00 1021 + 1,2
So, 24.03. 13:00 1021 - 1,7
So, 24.03. 7:00 1027 - 0,2
So, 24.03. 1:00 1028 - 1,0
Sa, 23.03. 19:00 1027 + 0,1
Sa, 23.03. 13:00 1026 - 1,0
Sa, 23.03. 7:00 1031 + 0,4
Ortszeit Luftdruck NN (hPa) Tendenz (hPa in 3 Std.)
Mo, 25.03. 1:00 1022 - 1,6
Mo, 25.03. 0:50 1020 keine Meldung
Mo, 25.03. 0:40 1022 keine Meldung
Mo, 25.03. 0:30 1023 - 1,2
Mo, 25.03. 0:20 1023 keine Meldung
Mo, 25.03. 0:10 1023 keine Meldung
Mo, 25.03. 0:00 1023 - 1,0
So, 24.03. 23:30 1024 - 0,4
So, 24.03. 23:00 1024 - 0,1
So, 24.03. 22:30 1024 + 0,3
So, 24.03. 22:00 1023 + 1,1
Ortszeit Schneehöhe (cm)
Mo, 25.03. 1:00 0
So, 24.03. 19:00 0
So, 24.03. 13:00 0
So, 24.03. 7:00 1
So, 24.03. 1:00 0
Sa, 23.03. 19:00 0
Sa, 23.03. 13:00 0
Sa, 23.03. 7:00 0
Ortszeit Schneehöhe (cm)
Mo, 25.03. 1:00 0
Mo, 25.03. 0:50 -
Mo, 25.03. 0:40 0
Mo, 25.03. 0:30 0
Mo, 25.03. 0:20 0
Mo, 25.03. 0:10 0
Mo, 25.03. 0:00 0
So, 24.03. 23:30 0
So, 24.03. 23:00 0
So, 24.03. 22:30 0
So, 24.03. 22:00 0
Link zu dieser Seite / Seite empfehlen

Das Wetter in ...